sensor_id;sensor_type;location;lat;lon;timestamp;P1;durP1;ratioP1;P2;durP2;ratioP2
29812;SDS011;16707;48.106;11.548;2023-04-22T00:00:51;4.18;;;3.60;;
29812;SDS011;16707;48.106;11.548;2023-04-22T00:03:20;4.15;;;3.17;;
29812;SDS011;16707;48.106;11.548;2023-04-22T00:05:47;4.15;;;3.28;;
29812;SDS011;16707;48.106;11.548;2023-04-22T00:08:16;7.50;;;5.05;;
29812;SDS011;16707;48.106;11.548;2023-04-22T00:10:45;5.78;;;4.13;;
29812;SDS011;16707;48.106;11.548;2023-04-22T00:13:19;6.95;;;4.03;;
29812;SDS011;16707;48.106;11.548;2023-04-22T00:15:46;4.15;;;3.55;;
29812;SDS011;16707;48.106;11.548;2023-04-22T00:18:22;3.78;;;3.22;;
29812;SDS011;16707;48.106;11.548;2023-04-22T00:20:55;4.85;;;3.55;;
29812;SDS011;16707;48.106;11.548;2023-04-22T00:23:24;5.93;;;3.78;;
29812;SDS011;16707;48.106;11.548;2023-04-22T00:25:56;4.93;;;3.80;;
29812;SDS011;16707;48.106;11.548;2023-04-22T00:28:27;4.20;;;3.17;;
29812;SDS011;16707;48.106;11.548;2023-04-22T00:30:57;6.87;;;3.17;;
29812;SDS011;16707;48.106;11.548;2023-04-22T00:33:27;4.95;;;3.17;;
29812;SDS011;16707;48.106;11.548;2023-04-22T00:35:58;4.70;;;3.17;;
29812;SDS011;16707;48.106;11.548;2023-04-22T00:38:29;5.05;;;3.55;;
29812;SDS011;16707;48.106;11.548;2023-04-22T00:41:05;4.20;;;3.03;;
29812;SDS011;16707;48.106;11.548;2023-04-22T00:43:36;3.05;;;2.40;;
29812;SDS011;16707;48.106;11.548;2023-04-22T00:46:07;3.70;;;2.53;;
29812;SDS011;16707;48.106;11.548;2023-04-22T00:48:37;3.42;;;2.45;;
29812;SDS011;16707;48.106;11.548;2023-04-22T00:51:15;4.75;;;2.50;;
29812;SDS011;16707;48.106;11.548;2023-04-22T00:53:43;4.75;;;2.72;;
29812;SDS011;16707;48.106;11.548;2023-04-22T00:56:10;5.18;;;2.60;;
29812;SDS011;16707;48.106;11.548;2023-04-22T00:58:41;4.35;;;2.65;;
29812;SDS011;16707;48.106;11.548;2023-04-22T01:01:09;4.70;;;2.40;;
29812;SDS011;16707;48.106;11.548;2023-04-22T01:03:42;2.83;;;2.45;;
29812;SDS011;16707;48.106;11.548;2023-04-22T01:06:15;3.60;;;2.30;;
29812;SDS011;16707;48.106;11.548;2023-04-22T01:08:56;3.65;;;2.50;;
29812;SDS011;16707;48.106;11.548;2023-04-22T01:11:24;2.60;;;2.22;;
29812;SDS011;16707;48.106;11.548;2023-04-22T01:13:51;4.93;;;2.60;;
29812;SDS011;16707;48.106;11.548;2023-04-22T01:16:24;4.90;;;2.85;;
29812;SDS011;16707;48.106;11.548;2023-04-22T01:18:58;4.38;;;2.78;;
29812;SDS011;16707;48.106;11.548;2023-04-22T01:21:25;3.35;;;2.80;;
29812;SDS011;16707;48.106;11.548;2023-04-22T01:23:55;5.45;;;2.75;;
29812;SDS011;16707;48.106;11.548;2023-04-22T01:27:20;4.95;;;3.05;;
29812;SDS011;16707;48.106;11.548;2023-04-22T01:29:47;5.07;;;2.40;;
29812;SDS011;16707;48.106;11.548;2023-04-22T01:32:25;2.85;;;2.03;;
29812;SDS011;16707;48.106;11.548;2023-04-22T01:35:00;5.35;;;2.60;;
29812;SDS011;16707;48.106;11.548;2023-04-22T01:37:27;2.80;;;2.50;;
29812;SDS011;16707;48.106;11.548;2023-04-22T01:40:04;4.15;;;2.40;;
29812;SDS011;16707;48.106;11.548;2023-04-22T01:42:37;4.65;;;2.40;;
29812;SDS011;16707;48.106;11.548;2023-04-22T01:45:04;4.22;;;2.50;;
29812;SDS011;16707;48.106;11.548;2023-04-22T01:47:32;4.55;;;2.83;;
29812;SDS011;16707;48.106;11.548;2023-04-22T01:50:03;3.97;;;2.35;;
29812;SDS011;16707;48.106;11.548;2023-04-22T01:52:30;3.13;;;2.22;;
29812;SDS011;16707;48.106;11.548;2023-04-22T01:54:57;2.53;;;2.13;;
29812;SDS011;16707;48.106;11.548;2023-04-22T01:57:28;9.63;;;2.53;;
29812;SDS011;16707;48.106;11.548;2023-04-22T01:59:56;4.53;;;2.67;;
29812;SDS011;16707;48.106;11.548;2023-04-22T02:02:29;3.65;;;2.67;;
29812;SDS011;16707;48.106;11.548;2023-04-22T02:07:34;5.85;;;2.45;;
29812;SDS011;16707;48.106;11.548;2023-04-22T02:10:06;3.15;;;2.25;;
29812;SDS011;16707;48.106;11.548;2023-04-22T02:12:48;5.50;;;1.95;;
29812;SDS011;16707;48.106;11.548;2023-04-22T02:15:17;2.22;;;1.80;;
29812;SDS011;16707;48.106;11.548;2023-04-22T02:17:44;3.67;;;1.90;;
29812;SDS011;16707;48.106;11.548;2023-04-22T02:20:40;2.40;;;1.80;;
29812;SDS011;16707;48.106;11.548;2023-04-22T02:23:07;2.00;;;1.70;;
29812;SDS011;16707;48.106;11.548;2023-04-22T02:25:37;2.58;;;1.48;;
29812;SDS011;16707;48.106;11.548;2023-04-22T02:28:07;3.03;;;1.85;;
29812;SDS011;16707;48.106;11.548;2023-04-22T02:30:36;2.20;;;1.73;;
29812;SDS011;16707;48.106;11.548;2023-04-22T02:33:03;3.50;;;1.90;;
29812;SDS011;16707;48.106;11.548;2023-04-22T02:35:31;2.28;;;2.08;;
29812;SDS011;16707;48.106;11.548;2023-04-22T02:38:01;3.28;;;1.80;;
29812;SDS011;16707;48.106;11.548;2023-04-22T02:40:28;2.15;;;1.63;;
29812;SDS011;16707;48.106;11.548;2023-04-22T02:42:55;3.97;;;2.10;;
29812;SDS011;16707;48.106;11.548;2023-04-22T02:45:22;2.53;;;1.90;;
29812;SDS011;16707;48.106;11.548;2023-04-22T02:47:50;2.40;;;1.77;;
29812;SDS011;16707;48.106;11.548;2023-04-22T02:50:17;3.92;;;1.85;;
29812;SDS011;16707;48.106;11.548;2023-04-22T02:52:44;2.25;;;1.67;;
29812;SDS011;16707;48.106;11.548;2023-04-22T02:55:12;4.32;;;1.90;;
29812;SDS011;16707;48.106;11.548;2023-04-22T02:57:44;3.55;;;2.25;;
29812;SDS011;16707;48.106;11.548;2023-04-22T03:00:13;4.53;;;1.60;;
29812;SDS011;16707;48.106;11.548;2023-04-22T03:02:43;2.08;;;1.60;;
29812;SDS011;16707;48.106;11.548;2023-04-22T03:05:23;2.60;;;1.80;;
29812;SDS011;16707;48.106;11.548;2023-04-22T03:07:57;3.10;;;2.13;;
29812;SDS011;16707;48.106;11.548;2023-04-22T03:10:24;3.78;;;1.63;;
29812;SDS011;16707;48.106;11.548;2023-04-22T03:12:51;2.38;;;1.55;;
29812;SDS011;16707;48.106;11.548;2023-04-22T03:15:18;3.00;;;1.60;;
29812;SDS011;16707;48.106;11.548;2023-04-22T03:17:46;3.08;;;1.90;;
29812;SDS011;16707;48.106;11.548;2023-04-22T03:20:14;2.95;;;1.77;;
29812;SDS011;16707;48.106;11.548;2023-04-22T03:22:45;2.50;;;1.63;;
29812;SDS011;16707;48.106;11.548;2023-04-22T03:25:15;2.85;;;1.50;;
29812;SDS011;16707;48.106;11.548;2023-04-22T03:27:42;2.00;;;1.75;;
29812;SDS011;16707;48.106;11.548;2023-04-22T03:30:10;2.10;;;1.50;;
29812;SDS011;16707;48.106;11.548;2023-04-22T03:32:42;2.20;;;1.70;;
29812;SDS011;16707;48.106;11.548;2023-04-22T03:35:13;2.40;;;1.60;;
29812;SDS011;16707;48.106;11.548;2023-04-22T03:37:40;3.05;;;1.67;;
29812;SDS011;16707;48.106;11.548;2023-04-22T03:40:11;2.80;;;1.48;;
29812;SDS011;16707;48.106;11.548;2023-04-22T03:42:42;2.05;;;1.70;;
29812;SDS011;16707;48.106;11.548;2023-04-22T03:45:18;2.80;;;1.83;;
29812;SDS011;16707;48.106;11.548;2023-04-22T03:47:51;3.33;;;2.00;;
29812;SDS011;16707;48.106;11.548;2023-04-22T03:50:20;3.80;;;1.60;;
29812;SDS011;16707;48.106;11.548;2023-04-22T03:52:51;2.30;;;1.70;;
29812;SDS011;16707;48.106;11.548;2023-04-22T03:55:23;2.33;;;1.65;;
29812;SDS011;16707;48.106;11.548;2023-04-22T03:58:00;3.15;;;1.73;;
29812;SDS011;16707;48.106;11.548;2023-04-22T04:00:37;3.03;;;1.55;;
29812;SDS011;16707;48.106;11.548;2023-04-22T04:03:08;3.38;;;1.80;;
29812;SDS011;16707;48.106;11.548;2023-04-22T04:05:38;4.60;;;1.80;;
29812;SDS011;16707;48.106;11.548;2023-04-22T04:08:06;1.98;;;1.65;;
29812;SDS011;16707;48.106;11.548;2023-04-22T04:10:34;1.65;;;1.40;;
29812;SDS011;16707;48.106;11.548;2023-04-22T04:13:05;3.03;;;1.65;;
29812;SDS011;16707;48.106;11.548;2023-04-22T04:15:36;2.92;;;1.90;;
29812;SDS011;16707;48.106;11.548;2023-04-22T04:18:04;3.88;;;1.90;;
29812;SDS011;16707;48.106;11.548;2023-04-22T04:20:37;4.03;;;1.95;;
29812;SDS011;16707;48.106;11.548;2023-04-22T04:23:10;3.20;;;1.60;;
29812;SDS011;16707;48.106;11.548;2023-04-22T04:25:40;2.15;;;1.60;;
29812;SDS011;16707;48.106;11.548;2023-04-22T04:28:08;2.20;;;1.80;;
29812;SDS011;16707;48.106;11.548;2023-04-22T04:30:39;1.92;;;1.70;;
29812;SDS011;16707;48.106;11.548;2023-04-22T04:33:06;1.75;;;1.52;;
29812;SDS011;16707;48.106;11.548;2023-04-22T04:35:34;1.77;;;1.40;;
29812;SDS011;16707;48.106;11.548;2023-04-22T04:38:05;2.00;;;1.50;;
29812;SDS011;16707;48.106;11.548;2023-04-22T04:40:37;2.47;;;1.65;;
29812;SDS011;16707;48.106;11.548;2023-04-22T04:43:09;2.70;;;1.83;;
29812;SDS011;16707;48.106;11.548;2023-04-22T04:45:49;1.83;;;1.52;;
29812;SDS011;16707;48.106;11.548;2023-04-22T04:48:20;2.92;;;1.50;;
29812;SDS011;16707;48.106;11.548;2023-04-22T04:50:49;1.50;;;1.17;;
29812;SDS011;16707;48.106;11.548;2023-04-22T04:53:23;2.47;;;1.80;;
29812;SDS011;16707;48.106;11.548;2023-04-22T04:55:59;2.63;;;1.80;;
29812;SDS011;16707;48.106;11.548;2023-04-22T04:58:29;3.63;;;1.25;;
29812;SDS011;16707;48.106;11.548;2023-04-22T05:00:59;1.92;;;1.25;;
29812;SDS011;16707;48.106;11.548;2023-04-22T05:03:26;1.40;;;1.10;;
29812;SDS011;16707;48.106;11.548;2023-04-22T05:05:56;4.68;;;1.42;;
29812;SDS011;16707;48.106;11.548;2023-04-22T05:08:23;1.10;;;1.00;;
29812;SDS011;16707;48.106;11.548;2023-04-22T05:10:51;2.05;;;1.17;;
29812;SDS011;16707;48.106;11.548;2023-04-22T05:13:19;1.13;;;0.90;;
29812;SDS011;16707;48.106;11.548;2023-04-22T05:15:59;1.30;;;1.15;;
29812;SDS011;16707;48.106;11.548;2023-04-22T05:18:35;3.78;;;1.30;;
29812;SDS011;16707;48.106;11.548;2023-04-22T05:21:04;1.35;;;1.08;;
29812;SDS011;16707;48.106;11.548;2023-04-22T05:23:34;3.35;;;1.13;;
29812;SDS011;16707;48.106;11.548;2023-04-22T05:26:12;2.28;;;1.10;;
29812;SDS011;16707;48.106;11.548;2023-04-22T05:28:55;0.98;;;0.90;;
29812;SDS011;16707;48.106;11.548;2023-04-22T05:31:26;1.38;;;1.08;;
29812;SDS011;16707;48.106;11.548;2023-04-22T05:33:56;1.87;;;0.97;;
29812;SDS011;16707;48.106;11.548;2023-04-22T05:36:28;2.53;;;1.30;;
29812;SDS011;16707;48.106;11.548;2023-04-22T05:38:58;1.33;;;0.90;;
29812;SDS011;16707;48.106;11.548;2023-04-22T05:41:26;1.80;;;1.30;;
29812;SDS011;16707;48.106;11.548;2023-04-22T05:43:54;1.60;;;1.10;;
29812;SDS011;16707;48.106;11.548;2023-04-22T05:46:44;1.52;;;1.08;;
29812;SDS011;16707;48.106;11.548;2023-04-22T05:49:12;1.05;;;0.95;;
29812;SDS011;16707;48.106;11.548;2023-04-22T05:51:40;3.15;;;1.02;;
29812;SDS011;16707;48.106;11.548;2023-04-22T05:54:07;2.03;;;1.20;;
29812;SDS011;16707;48.106;11.548;2023-04-22T05:56:44;3.22;;;1.55;;
29812;SDS011;16707;48.106;11.548;2023-04-22T05:59:13;1.10;;;1.00;;
29812;SDS011;16707;48.106;11.548;2023-04-22T06:01:45;1.25;;;1.10;;
29812;SDS011;16707;48.106;11.548;2023-04-22T06:04:17;1.75;;;1.27;;
29812;SDS011;16707;48.106;11.548;2023-04-22T06:06:48;3.22;;;1.27;;
29812;SDS011;16707;48.106;11.548;2023-04-22T06:09:21;1.77;;;1.10;;
29812;SDS011;16707;48.106;11.548;2023-04-22T06:11:48;2.20;;;1.40;;
29812;SDS011;16707;48.106;11.548;2023-04-22T06:14:17;1.85;;;1.10;;
29812;SDS011;16707;48.106;11.548;2023-04-22T06:16:45;1.48;;;0.98;;
29812;SDS011;16707;48.106;11.548;2023-04-22T06:19:14;1.40;;;1.20;;
29812;SDS011;16707;48.106;11.548;2023-04-22T06:21:47;1.77;;;0.93;;
29812;SDS011;16707;48.106;11.548;2023-04-22T06:24:14;1.52;;;1.10;;
29812;SDS011;16707;48.106;11.548;2023-04-22T06:26:41;2.60;;;1.10;;
29812;SDS011;16707;48.106;11.548;2023-04-22T06:31:43;1.42;;;1.20;;
29812;SDS011;16707;48.106;11.548;2023-04-22T06:34:12;1.90;;;0.95;;
29812;SDS011;16707;48.106;11.548;2023-04-22T06:36:40;1.50;;;1.05;;
29812;SDS011;16707;48.106;11.548;2023-04-22T06:39:10;1.08;;;0.82;;
29812;SDS011;16707;48.106;11.548;2023-04-22T06:41:43;1.20;;;1.00;;
29812;SDS011;16707;48.106;11.548;2023-04-22T06:44:10;1.40;;;0.90;;
29812;SDS011;16707;48.106;11.548;2023-04-22T06:46:41;1.30;;;1.05;;
29812;SDS011;16707;48.106;11.548;2023-04-22T06:49:10;1.15;;;1.00;;
29812;SDS011;16707;48.106;11.548;2023-04-22T06:51:37;2.13;;;1.00;;
29812;SDS011;16707;48.106;11.548;2023-04-22T06:54:07;3.50;;;1.00;;
29812;SDS011;16707;48.106;11.548;2023-04-22T06:56:43;2.88;;;1.00;;
29812;SDS011;16707;48.106;11.548;2023-04-22T06:59:13;1.42;;;1.08;;
29812;SDS011;16707;48.106;11.548;2023-04-22T07:01:42;1.00;;;1.00;;
29812;SDS011;16707;48.106;11.548;2023-04-22T07:04:10;2.40;;;0.90;;
29812;SDS011;16707;48.106;11.548;2023-04-22T07:06:39;1.55;;;1.00;;
29812;SDS011;16707;48.106;11.548;2023-04-22T07:09:10;1.63;;;0.88;;
29812;SDS011;16707;48.106;11.548;2023-04-22T07:11:40;0.93;;;0.80;;
29812;SDS011;16707;48.106;11.548;2023-04-22T07:14:08;1.40;;;1.00;;
29812;SDS011;16707;48.106;11.548;2023-04-22T07:16:39;1.75;;;1.00;;
29812;SDS011;16707;48.106;11.548;2023-04-22T07:19:16;2.20;;;0.88;;
29812;SDS011;16707;48.106;11.548;2023-04-22T07:21:45;1.10;;;1.00;;
29812;SDS011;16707;48.106;11.548;2023-04-22T07:24:13;1.38;;;1.10;;
29812;SDS011;16707;48.106;11.548;2023-04-22T07:26:56;3.03;;;1.17;;
29812;SDS011;16707;48.106;11.548;2023-04-22T07:29:33;1.67;;;1.10;;
29812;SDS011;16707;48.106;11.548;2023-04-22T07:32:05;1.10;;;0.90;;
29812;SDS011;16707;48.106;11.548;2023-04-22T07:34:32;1.63;;;1.00;;
29812;SDS011;16707;48.106;11.548;2023-04-22T07:36:59;1.08;;;0.90;;
29812;SDS011;16707;48.106;11.548;2023-04-22T07:39:31;0.93;;;0.80;;
29812;SDS011;16707;48.106;11.548;2023-04-22T07:42:01;1.75;;;0.80;;
29812;SDS011;16707;48.106;11.548;2023-04-22T07:44:28;1.35;;;0.90;;
29812;SDS011;16707;48.106;11.548;2023-04-22T07:46:58;1.30;;;1.20;;
29812;SDS011;16707;48.106;11.548;2023-04-22T07:49:35;1.10;;;1.00;;
29812;SDS011;16707;48.106;11.548;2023-04-22T07:52:05;0.68;;;0.68;;
29812;SDS011;16707;48.106;11.548;2023-04-22T07:54:32;1.33;;;0.70;;
29812;SDS011;16707;48.106;11.548;2023-04-22T07:57:02;0.80;;;0.80;;
29812;SDS011;16707;48.106;11.548;2023-04-22T07:59:30;0.80;;;0.80;;
29812;SDS011;16707;48.106;11.548;2023-04-22T08:01:57;1.58;;;0.98;;
29812;SDS011;16707;48.106;11.548;2023-04-22T08:04:28;1.00;;;0.90;;
29812;SDS011;16707;48.106;11.548;2023-04-22T08:06:55;1.20;;;1.00;;
29812;SDS011;16707;48.106;11.548;2023-04-22T08:09:23;1.20;;;1.10;;
29812;SDS011;16707;48.106;11.548;2023-04-22T08:11:50;2.20;;;1.02;;
29812;SDS011;16707;48.106;11.548;2023-04-22T08:14:18;1.30;;;1.20;;
29812;SDS011;16707;48.106;11.548;2023-04-22T08:16:45;1.90;;;1.00;;
29812;SDS011;16707;48.106;11.548;2023-04-22T08:19:12;1.30;;;1.00;;
29812;SDS011;16707;48.106;11.548;2023-04-22T08:21:44;1.20;;;1.08;;
29812;SDS011;16707;48.106;11.548;2023-04-22T08:24:21;1.45;;;1.00;;
29812;SDS011;16707;48.106;11.548;2023-04-22T08:27:00;2.63;;;1.08;;
29812;SDS011;16707;48.106;11.548;2023-04-22T08:29:29;2.33;;;0.85;;
29812;SDS011;16707;48.106;11.548;2023-04-22T08:31:57;0.88;;;0.80;;
29812;SDS011;16707;48.106;11.548;2023-04-22T08:34:25;0.95;;;0.75;;
29812;SDS011;16707;48.106;11.548;2023-04-22T08:36:54;1.67;;;1.10;;
29812;SDS011;16707;48.106;11.548;2023-04-22T08:39:21;2.50;;;1.10;;
29812;SDS011;16707;48.106;11.548;2023-04-22T08:41:49;0.82;;;0.80;;
29812;SDS011;16707;48.106;11.548;2023-04-22T08:44:19;0.70;;;0.70;;
29812;SDS011;16707;48.106;11.548;2023-04-22T08:46:50;0.73;;;0.70;;
29812;SDS011;16707;48.106;11.548;2023-04-22T08:49:22;0.98;;;0.85;;
29812;SDS011;16707;48.106;11.548;2023-04-22T08:51:50;1.60;;;0.93;;
29812;SDS011;16707;48.106;11.548;2023-04-22T08:54:19;0.88;;;0.60;;
29812;SDS011;16707;48.106;11.548;2023-04-22T08:56:46;1.25;;;0.60;;
29812;SDS011;16707;48.106;11.548;2023-04-22T08:59:24;0.77;;;0.77;;
29812;SDS011;16707;48.106;11.548;2023-04-22T09:01:51;1.35;;;0.70;;
29812;SDS011;16707;48.106;11.548;2023-04-22T09:04:20;1.48;;;1.10;;
29812;SDS011;16707;48.106;11.548;2023-04-22T09:06:47;0.70;;;0.70;;
29812;SDS011;16707;48.106;11.548;2023-04-22T09:09:15;0.80;;;0.65;;
29812;SDS011;16707;48.106;11.548;2023-04-22T09:11:44;1.15;;;0.85;;
29812;SDS011;16707;48.106;11.548;2023-04-22T09:14:11;0.95;;;0.60;;
29812;SDS011;16707;48.106;11.548;2023-04-22T09:16:41;0.70;;;0.70;;
29812;SDS011;16707;48.106;11.548;2023-04-22T09:19:15;0.70;;;0.70;;
29812;SDS011;16707;48.106;11.548;2023-04-22T09:21:52;0.60;;;0.60;;
29812;SDS011;16707;48.106;11.548;2023-04-22T09:24:26;1.55;;;1.10;;
29812;SDS011;16707;48.106;11.548;2023-04-22T09:27:02;0.90;;;0.80;;
29812;SDS011;16707;48.106;11.548;2023-04-22T09:29:31;1.27;;;0.63;;
29812;SDS011;16707;48.106;11.548;2023-04-22T09:31:58;0.85;;;0.68;;
29812;SDS011;16707;48.106;11.548;2023-04-22T09:34:44;1.48;;;0.82;;
29812;SDS011;16707;48.106;11.548;2023-04-22T09:37:17;0.90;;;0.80;;
29812;SDS011;16707;48.106;11.548;2023-04-22T09:39:49;0.98;;;0.77;;
29812;SDS011;16707;48.106;11.548;2023-04-22T09:42:21;1.45;;;1.10;;
29812;SDS011;16707;48.106;11.548;2023-04-22T09:44:49;0.98;;;0.82;;
29812;SDS011;16707;48.106;11.548;2023-04-22T09:47:18;1.05;;;0.80;;
29812;SDS011;16707;48.106;11.548;2023-04-22T09:49:47;0.60;;;0.60;;
29812;SDS011;16707;48.106;11.548;2023-04-22T09:52:21;0.55;;;0.55;;
29812;SDS011;16707;48.106;11.548;2023-04-22T09:54:51;2.10;;;0.70;;
29812;SDS011;16707;48.106;11.548;2023-04-22T09:57:19;0.73;;;0.70;;
29812;SDS011;16707;48.106;11.548;2023-04-22T09:59:50;0.93;;;0.80;;
29812;SDS011;16707;48.106;11.548;2023-04-22T10:02:27;1.05;;;0.80;;
29812;SDS011;16707;48.106;11.548;2023-04-22T10:04:58;1.25;;;0.80;;
29812;SDS011;16707;48.106;11.548;2023-04-22T10:07:25;0.80;;;0.80;;
29812;SDS011;16707;48.106;11.548;2023-04-22T10:09:55;1.65;;;0.98;;
29812;SDS011;16707;48.106;11.548;2023-04-22T10:12:31;0.85;;;0.75;;
29812;SDS011;16707;48.106;11.548;2023-04-22T10:15:01;0.70;;;0.70;;
29812;SDS011;16707;48.106;11.548;2023-04-22T10:17:29;1.65;;;0.60;;
29812;SDS011;16707;48.106;11.548;2023-04-22T10:19:58;1.13;;;0.90;;
29812;SDS011;16707;48.106;11.548;2023-04-22T10:22:29;0.75;;;0.70;;
29812;SDS011;16707;48.106;11.548;2023-04-22T10:24:58;1.02;;;0.90;;
29812;SDS011;16707;48.106;11.548;2023-04-22T10:27:25;0.80;;;0.63;;
29812;SDS011;16707;48.106;11.548;2023-04-22T10:29:54;1.60;;;0.75;;
29812;SDS011;16707;48.106;11.548;2023-04-22T10:32:26;0.60;;;0.60;;
29812;SDS011;16707;48.106;11.548;2023-04-22T10:35:12;0.80;;;0.80;;
29812;SDS011;16707;48.106;11.548;2023-04-22T10:37:40;0.82;;;0.80;;
29812;SDS011;16707;48.106;11.548;2023-04-22T10:40:10;0.80;;;0.80;;
29812;SDS011;16707;48.106;11.548;2023-04-22T10:42:45;1.10;;;0.93;;
29812;SDS011;16707;48.106;11.548;2023-04-22T10:45:16;2.83;;;0.90;;
29812;SDS011;16707;48.106;11.548;2023-04-22T10:47:46;0.80;;;0.80;;
29812;SDS011;16707;48.106;11.548;2023-04-22T10:50:21;1.70;;;1.00;;
29812;SDS011;16707;48.106;11.548;2023-04-22T10:52:57;1.27;;;1.02;;
29812;SDS011;16707;48.106;11.548;2023-04-22T10:56:00;1.35;;;0.90;;
29812;SDS011;16707;48.106;11.548;2023-04-22T10:58:41;0.85;;;0.77;;
29812;SDS011;16707;48.106;11.548;2023-04-22T11:01:14;2.70;;;0.98;;
29812;SDS011;16707;48.106;11.548;2023-04-22T11:03:46;0.95;;;0.80;;
29812;SDS011;16707;48.106;11.548;2023-04-22T11:06:19;1.17;;;1.05;;
29812;SDS011;16707;48.106;11.548;2023-04-22T11:08:51;1.40;;;0.95;;
29812;SDS011;16707;48.106;11.548;2023-04-22T11:11:37;2.05;;;1.00;;
29812;SDS011;16707;48.106;11.548;2023-04-22T11:14:05;0.88;;;0.70;;
29812;SDS011;16707;48.106;11.548;2023-04-22T11:16:35;2.28;;;0.90;;
29812;SDS011;16707;48.106;11.548;2023-04-22T11:19:04;1.38;;;1.08;;
29812;SDS011;16707;48.106;11.548;2023-04-22T11:21:31;1.27;;;1.05;;
29812;SDS011;16707;48.106;11.548;2023-04-22T11:23:58;1.30;;;1.08;;
29812;SDS011;16707;48.106;11.548;2023-04-22T11:26:33;1.30;;;1.10;;
29812;SDS011;16707;48.106;11.548;2023-04-22T11:29:01;1.95;;;1.30;;
29812;SDS011;16707;48.106;11.548;2023-04-22T11:31:28;1.52;;;1.00;;
29812;SDS011;16707;48.106;11.548;2023-04-22T11:34:00;1.33;;;1.23;;
29812;SDS011;16707;48.106;11.548;2023-04-22T11:36:29;1.55;;;1.20;;
29812;SDS011;16707;48.106;11.548;2023-04-22T11:38:56;1.00;;;0.90;;
29812;SDS011;16707;48.106;11.548;2023-04-22T11:41:26;1.88;;;1.10;;
29812;SDS011;16707;48.106;11.548;2023-04-22T11:43:54;2.72;;;1.27;;
29812;SDS011;16707;48.106;11.548;2023-04-22T11:46:27;1.00;;;0.90;;
29812;SDS011;16707;48.106;11.548;2023-04-22T11:49:10;1.50;;;0.90;;
29812;SDS011;16707;48.106;11.548;2023-04-22T11:51:52;1.20;;;1.10;;
29812;SDS011;16707;48.106;11.548;2023-04-22T11:54:33;1.20;;;1.05;;
29812;SDS011;16707;48.106;11.548;2023-04-22T11:57:04;0.80;;;0.80;;
29812;SDS011;16707;48.106;11.548;2023-04-22T11:59:33;0.77;;;0.77;;
29812;SDS011;16707;48.106;11.548;2023-04-22T12:02:03;1.80;;;1.10;;
29812;SDS011;16707;48.106;11.548;2023-04-22T12:04:34;19.77;;;6.50;;
29812;SDS011;16707;48.106;11.548;2023-04-22T12:07:04;3.40;;;1.30;;
29812;SDS011;16707;48.106;11.548;2023-04-22T12:09:32;6.28;;;2.08;;
29812;SDS011;16707;48.106;11.548;2023-04-22T12:12:01;2.50;;;1.35;;
29812;SDS011;16707;48.106;11.548;2023-04-22T12:14:31;2.90;;;1.60;;
29812;SDS011;16707;48.106;11.548;2023-04-22T12:17:01;9.38;;;4.18;;
29812;SDS011;16707;48.106;11.548;2023-04-22T12:19:32;3.58;;;1.45;;
29812;SDS011;16707;48.106;11.548;2023-04-22T12:21:59;2.58;;;1.55;;
29812;SDS011;16707;48.106;11.548;2023-04-22T12:24:28;2.55;;;1.52;;
29812;SDS011;16707;48.106;11.548;2023-04-22T12:26:56;1.55;;;1.40;;
29812;SDS011;16707;48.106;11.548;2023-04-22T12:29:28;4.03;;;2.20;;
29812;SDS011;16707;48.106;11.548;2023-04-22T12:31:58;2.28;;;1.30;;
29812;SDS011;16707;48.106;11.548;2023-04-22T12:34:28;2.70;;;1.70;;
29812;SDS011;16707;48.106;11.548;2023-04-22T12:36:55;1.90;;;1.27;;
29812;SDS011;16707;48.106;11.548;2023-04-22T12:39:23;2.00;;;1.42;;
29812;SDS011;16707;48.106;11.548;2023-04-22T12:41:52;1.52;;;0.95;;
29812;SDS011;16707;48.106;11.548;2023-04-22T12:44:19;0.98;;;0.90;;
29812;SDS011;16707;48.106;11.548;2023-04-22T12:46:46;1.58;;;1.25;;
29812;SDS011;16707;48.106;11.548;2023-04-22T12:49:16;1.92;;;1.45;;
29812;SDS011;16707;48.106;11.548;2023-04-22T12:51:43;1.20;;;1.00;;
29812;SDS011;16707;48.106;11.548;2023-04-22T12:54:10;1.10;;;1.00;;
29812;SDS011;16707;48.106;11.548;2023-04-22T12:56:37;1.20;;;1.08;;
29812;SDS011;16707;48.106;11.548;2023-04-22T12:59:06;1.23;;;1.13;;
29812;SDS011;16707;48.106;11.548;2023-04-22T13:01:36;2.40;;;1.00;;
29812;SDS011;16707;48.106;11.548;2023-04-22T13:04:04;1.10;;;1.00;;
29812;SDS011;16707;48.106;11.548;2023-04-22T13:06:31;1.48;;;1.08;;
29812;SDS011;16707;48.106;11.548;2023-04-22T13:09:00;1.73;;;0.98;;
29812;SDS011;16707;48.106;11.548;2023-04-22T13:11:29;1.25;;;1.15;;
29812;SDS011;16707;48.106;11.548;2023-04-22T13:13:59;1.60;;;0.98;;
29812;SDS011;16707;48.106;11.548;2023-04-22T13:16:28;0.95;;;0.95;;
29812;SDS011;16707;48.106;11.548;2023-04-22T13:18:58;1.83;;;1.23;;
29812;SDS011;16707;48.106;11.548;2023-04-22T13:21:26;1.55;;;1.13;;
29812;SDS011;16707;48.106;11.548;2023-04-22T13:23:56;1.30;;;0.90;;
29812;SDS011;16707;48.106;11.548;2023-04-22T13:26:24;1.45;;;1.20;;
29812;SDS011;16707;48.106;11.548;2023-04-22T13:28:53;2.75;;;1.20;;
29812;SDS011;16707;48.106;11.548;2023-04-22T13:31:28;1.15;;;0.95;;
29812;SDS011;16707;48.106;11.548;2023-04-22T13:33:56;1.98;;;1.25;;
29812;SDS011;16707;48.106;11.548;2023-04-22T13:36:26;2.05;;;1.20;;
29812;SDS011;16707;48.106;11.548;2023-04-22T13:38:53;2.00;;;1.40;;
29812;SDS011;16707;48.106;11.548;2023-04-22T13:41:23;2.63;;;1.42;;
29812;SDS011;16707;48.106;11.548;2023-04-22T13:43:51;1.45;;;1.00;;
29812;SDS011;16707;48.106;11.548;2023-04-22T13:46:23;1.20;;;1.10;;
29812;SDS011;16707;48.106;11.548;2023-04-22T13:48:53;1.98;;;1.23;;
29812;SDS011;16707;48.106;11.548;2023-04-22T13:51:29;1.80;;;1.55;;
29812;SDS011;16707;48.106;11.548;2023-04-22T13:54:00;1.70;;;1.23;;
29812;SDS011;16707;48.106;11.548;2023-04-22T13:56:30;1.70;;;1.10;;
29812;SDS011;16707;48.106;11.548;2023-04-22T13:59:01;1.33;;;1.23;;
29812;SDS011;16707;48.106;11.548;2023-04-22T14:01:29;1.25;;;1.10;;
29812;SDS011;16707;48.106;11.548;2023-04-22T14:04:03;1.20;;;1.02;;
29812;SDS011;16707;48.106;11.548;2023-04-22T14:06:40;1.13;;;1.02;;
29812;SDS011;16707;48.106;11.548;2023-04-22T14:09:07;2.00;;;1.00;;
29812;SDS011;16707;48.106;11.548;2023-04-22T14:11:36;1.88;;;1.23;;
29812;SDS011;16707;48.106;11.548;2023-04-22T14:14:07;2.92;;;1.17;;
29812;SDS011;16707;48.106;11.548;2023-04-22T14:16:34;1.92;;;1.23;;
29812;SDS011;16707;48.106;11.548;2023-04-22T14:19:03;2.40;;;1.15;;
29812;SDS011;16707;48.106;11.548;2023-04-22T14:21:33;1.08;;;0.98;;
29812;SDS011;16707;48.106;11.548;2023-04-22T14:24:11;1.17;;;1.05;;
29812;SDS011;16707;48.106;11.548;2023-04-22T14:26:43;1.73;;;1.10;;
29812;SDS011;16707;48.106;11.548;2023-04-22T14:29:10;1.30;;;1.20;;
29812;SDS011;16707;48.106;11.548;2023-04-22T14:31:44;1.33;;;1.00;;
29812;SDS011;16707;48.106;11.548;2023-04-22T14:34:15;1.10;;;1.02;;
29812;SDS011;16707;48.106;11.548;2023-04-22T14:36:42;1.23;;;1.10;;
29812;SDS011;16707;48.106;11.548;2023-04-22T14:39:10;1.50;;;1.20;;
29812;SDS011;16707;48.106;11.548;2023-04-22T14:41:49;2.03;;;1.30;;
29812;SDS011;16707;48.106;11.548;2023-04-22T14:44:17;2.10;;;1.50;;
29812;SDS011;16707;48.106;11.548;2023-04-22T14:46:44;1.73;;;1.30;;
29812;SDS011;16707;48.106;11.548;2023-04-22T14:49:18;1.33;;;1.20;;
29812;SDS011;16707;48.106;11.548;2023-04-22T14:51:50;1.48;;;1.38;;
29812;SDS011;16707;48.106;11.548;2023-04-22T14:54:17;3.20;;;1.35;;
29812;SDS011;16707;48.106;11.548;2023-04-22T14:56:45;1.73;;;1.42;;
29812;SDS011;16707;48.106;11.548;2023-04-22T14:59:16;2.63;;;1.50;;